createdAt,value
2023-06-16T00:00:02.073Z,97980.00
2023-06-16T00:00:12.097Z,97982.00
2023-06-16T00:00:22.091Z,97980.00
2023-06-16T00:00:32.094Z,97980.00
2023-06-16T00:00:42.094Z,97982.00
2023-06-16T00:00:52.106Z,97982.00
2023-06-16T00:01:02.114Z,97984.00
2023-06-16T00:01:12.315Z,97980.00
2023-06-16T00:01:22.312Z,97980.00
2023-06-16T00:01:32.898Z,97984.00
2023-06-16T00:01:42.722Z,97982.00
2023-06-16T00:01:52.843Z,97982.00
2023-06-16T00:02:03.026Z,97980.00
2023-06-16T00:02:13.022Z,97982.00
2023-06-16T00:02:23.031Z,97980.00
2023-06-16T00:02:33.065Z,97980.00
2023-06-16T00:02:43.277Z,97982.00
2023-06-16T00:02:53.252Z,97982.00
2023-06-16T00:03:03.290Z,97980.00
2023-06-16T00:03:13.274Z,97984.00
2023-06-16T00:03:23.315Z,97980.00
2023-06-16T00:03:33.333Z,97984.00
2023-06-16T00:03:43.367Z,97982.00
2023-06-16T00:03:53.470Z,97984.00
2023-06-16T00:04:03.551Z,97982.00
2023-06-16T00:04:13.603Z,97984.00
2023-06-16T00:04:23.636Z,97984.00
2023-06-16T00:04:33.754Z,97982.00
2023-06-16T00:04:43.757Z,97984.00
2023-06-16T00:04:54.038Z,97982.00
2023-06-16T00:05:04.027Z,97984.00
2023-06-16T00:05:14.068Z,97982.00
2023-06-16T00:05:24.069Z,97982.00
2023-06-16T00:05:34.076Z,97982.00
2023-06-16T00:05:44.188Z,97984.00
2023-06-16T00:05:54.327Z,97984.00
2023-06-16T00:06:04.360Z,97984.00
2023-06-16T00:06:14.338Z,97984.00
2023-06-16T00:06:24.353Z,97984.00
2023-06-16T00:06:34.502Z,97980.00
2023-06-16T00:06:44.484Z,97984.00
2023-06-16T00:06:54.624Z,97984.00
2023-06-16T00:07:04.870Z,97984.00
2023-06-16T00:07:14.882Z,97984.00
2023-06-16T00:07:24.874Z,97980.00
2023-06-16T00:07:34.879Z,97984.00
2023-06-16T00:07:44.884Z,97982.00
2023-06-16T00:07:55.002Z,97982.00
2023-06-16T00:08:05.146Z,97982.00
2023-06-16T00:08:15.029Z,97982.00
2023-06-16T00:08:25.053Z,97982.00
2023-06-16T00:08:35.065Z,97984.00
2023-06-16T00:08:45.322Z,97984.00
2023-06-16T00:08:55.381Z,97984.00
2023-06-16T00:09:05.400Z,97986.00
2023-06-16T00:09:15.411Z,97984.00
2023-06-16T00:09:25.420Z,97986.00
2023-06-16T00:09:35.543Z,97984.00
2023-06-16T00:09:45.554Z,97984.00
2023-06-16T00:09:55.556Z,97984.00
2023-06-16T00:10:05.629Z,97986.00
2023-06-16T00:10:15.798Z,97986.00
2023-06-16T00:10:25.870Z,97982.00
2023-06-16T00:10:35.880Z,97982.00
2023-06-16T00:10:45.891Z,97984.00
2023-06-16T00:10:56.274Z,97984.00
2023-06-16T00:11:06.286Z,97982.00
2023-06-16T00:11:16.284Z,97986.00
2023-06-16T00:11:26.276Z,97986.00
2023-06-16T00:11:36.293Z,97984.00
2023-06-16T00:11:46.298Z,97984.00
2023-06-16T00:11:56.302Z,97984.00
2023-06-16T00:12:06.329Z,97984.00
2023-06-16T00:12:16.338Z,97984.00
2023-06-16T00:12:26.341Z,97984.00
2023-06-16T00:12:36.351Z,97984.00
2023-06-16T00:12:46.349Z,97986.00
2023-06-16T00:12:56.477Z,97986.00
2023-06-16T00:13:06.486Z,97986.00
2023-06-16T00:13:16.493Z,97986.00
2023-06-16T00:13:26.487Z,97984.00
2023-06-16T00:13:36.604Z,97986.00
2023-06-16T00:13:46.751Z,97984.00
2023-06-16T00:13:56.734Z,97986.00
2023-06-16T00:14:06.894Z,97986.00
2023-06-16T00:14:17.135Z,97986.00
2023-06-16T00:14:27.134Z,97986.00
2023-06-16T00:14:37.122Z,97988.00
2023-06-16T00:14:47.134Z,97988.00
2023-06-16T00:14:57.137Z,97984.00
2023-06-16T00:15:07.142Z,97984.00
2023-06-16T00:15:17.142Z,97982.00
2023-06-16T00:15:27.265Z,97986.00
2023-06-16T00:15:37.266Z,97984.00
2023-06-16T00:15:47.387Z,97984.00
2023-06-16T00:15:57.521Z,97984.00
2023-06-16T00:16:07.553Z,97984.00
2023-06-16T00:16:17.532Z,97984.00
2023-06-16T00:16:27.930Z,97984.00
2023-06-16T00:16:37.915Z,97980.00
2023-06-16T00:16:48.035Z,97984.00
2023-06-16T00:16:58.390Z,97982.00
2023-06-16T00:17:08.368Z,97982.00
2023-06-16T00:17:18.369Z,97980.00
2023-06-16T00:17:28.791Z,97982.00
2023-06-16T00:17:38.858Z,97982.00
2023-06-16T00:17:48.911Z,97982.00
2023-06-16T00:17:58.925Z,97980.00
2023-06-16T00:18:08.935Z,97982.00
2023-06-16T00:18:18.943Z,97982.00
2023-06-16T00:18:29.056Z,97982.00
2023-06-16T00:18:39.059Z,97980.00
2023-06-16T00:18:49.188Z,97980.00
2023-06-16T00:18:59.648Z,97980.00
2023-06-16T00:19:09.419Z,97972.00
2023-06-16T00:19:19.423Z,97980.00
2023-06-16T00:19:29.551Z,97972.00
2023-06-16T00:19:39.822Z,97972.00
2023-06-16T00:19:49.934Z,97972.00
2023-06-16T00:19:59.935Z,97980.00
2023-06-16T00:20:10.186Z,97972.00
2023-06-16T00:20:20.445Z,97972.00
2023-06-16T00:20:30.206Z,97980.00
2023-06-16T00:20:40.217Z,97972.00
2023-06-16T00:20:50.339Z,97968.00
2023-06-16T00:21:00.339Z,97980.00
2023-06-16T00:21:10.394Z,97972.00
2023-06-16T00:21:20.414Z,97980.00
2023-06-16T00:21:30.538Z,97970.00
2023-06-16T00:21:40.558Z,97980.00
2023-06-16T00:21:50.683Z,97972.00
2023-06-16T00:22:00.777Z,97972.00
2023-06-16T00:22:10.881Z,97980.00
2023-06-16T00:22:21.165Z,97972.00
2023-06-16T00:22:31.290Z,97972.00
2023-06-16T00:22:41.288Z,97972.00
2023-06-16T00:22:51.541Z,97972.00
2023-06-16T00:23:01.546Z,97972.00
2023-06-16T00:23:11.677Z,97980.00
2023-06-16T00:23:21.929Z,97972.00
2023-06-16T00:23:32.047Z,97980.00
2023-06-16T00:23:42.054Z,97982.00
2023-06-16T00:23:52.348Z,97980.00
2023-06-16T00:24:02.356Z,97982.00
2023-06-16T00:24:12.362Z,97980.00
2023-06-16T00:24:22.457Z,97980.00
2023-06-16T00:24:32.479Z,97982.00
2023-06-16T00:24:42.502Z,97982.00
2023-06-16T00:24:52.613Z,97982.00
2023-06-16T00:25:02.622Z,97984.00
2023-06-16T00:25:12.744Z,97984.00
2023-06-16T00:25:22.745Z,97984.00
2023-06-16T00:25:32.870Z,97972.00
2023-06-16T00:25:42.868Z,97980.00
2023-06-16T00:25:52.989Z,97986.00
2023-06-16T00:26:03.247Z,97986.00
2023-06-16T00:26:13.256Z,97986.00
2023-06-16T00:26:23.262Z,97980.00
2023-06-16T00:26:33.279Z,97980.00
2023-06-16T00:26:43.291Z,97980.00
2023-06-16T00:26:53.295Z,97980.00
2023-06-16T00:27:03.298Z,97982.00
2023-06-16T00:27:13.307Z,97984.00
2023-06-16T00:27:23.325Z,97982.00
2023-06-16T00:27:33.332Z,97982.00
2023-06-16T00:27:43.337Z,97982.00
2023-06-16T00:27:53.455Z,97982.00
2023-06-16T00:28:03.456Z,97984.00
2023-06-16T00:28:13.459Z,97984.00
2023-06-16T00:28:23.492Z,97982.00
2023-06-16T00:28:33.491Z,97982.00
2023-06-16T00:28:43.490Z,97982.00
2023-06-16T00:28:53.766Z,97982.00
2023-06-16T00:29:03.780Z,97984.00
2023-06-16T00:29:13.898Z,97982.00
2023-06-16T00:29:24.166Z,97982.00
2023-06-16T00:29:34.277Z,97984.00
2023-06-16T00:29:44.293Z,97982.00
2023-06-16T00:29:54.542Z,97984.00
2023-06-16T00:30:04.540Z,97982.00
2023-06-16T00:30:14.657Z,97984.00
2023-06-16T00:30:24.930Z,97982.00
2023-06-16T00:30:34.949Z,97982.00
2023-06-16T00:30:44.952Z,97982.00
2023-06-16T00:30:54.973Z,97984.00
2023-06-16T00:31:05.010Z,97982.00
2023-06-16T00:31:15.003Z,97982.00
2023-06-16T00:31:25.006Z,97982.00
2023-06-16T00:31:35.011Z,97980.00
2023-06-16T00:31:45.008Z,97984.00
2023-06-16T00:31:55.136Z,97982.00
2023-06-16T00:32:05.386Z,97982.00
2023-06-16T00:32:15.395Z,97984.00
2023-06-16T00:32:25.439Z,97984.00
2023-06-16T00:32:35.504Z,97982.00
2023-06-16T00:32:45.574Z,97982.00
2023-06-16T00:32:55.624Z,97984.00
2023-06-16T00:33:05.699Z,97982.00
2023-06-16T00:33:15.701Z,97982.00
2023-06-16T00:33:25.715Z,97982.00
2023-06-16T00:33:35.719Z,97982.00
2023-06-16T00:33:45.724Z,97982.00
2023-06-16T00:33:55.737Z,97984.00
2023-06-16T00:34:05.744Z,97982.00
2023-06-16T00:34:15.769Z,97982.00
2023-06-16T00:34:25.780Z,97982.00
2023-06-16T00:34:35.900Z,97984.00
2023-06-16T00:34:45.900Z,97982.00
2023-06-16T00:34:56.163Z,97984.00
2023-06-16T00:35:06.146Z,97984.00
2023-06-16T00:35:16.280Z,97980.00
2023-06-16T00:35:26.555Z,97980.00
2023-06-16T00:35:36.558Z,97984.00
2023-06-16T00:35:46.589Z,97982.00
2023-06-16T00:35:56.595Z,97982.00
2023-06-16T00:36:06.599Z,97980.00
2023-06-16T00:36:16.599Z,97982.00
2023-06-16T00:36:26.735Z,97984.00
2023-06-16T00:36:36.743Z,97982.00
2023-06-16T00:36:46.763Z,97984.00
2023-06-16T00:36:56.742Z,97982.00
2023-06-16T00:37:07.007Z,97980.00
2023-06-16T00:37:17.145Z,97980.00
2023-06-16T00:37:27.148Z,97982.00
2023-06-16T00:37:37.392Z,97984.00
2023-06-16T00:37:47.509Z,97980.00
2023-06-16T00:37:57.635Z,97980.00
2023-06-16T00:38:07.759Z,97980.00
2023-06-16T00:38:17.906Z,97980.00
2023-06-16T00:38:27.902Z,97982.00
2023-06-16T00:38:38.154Z,97982.00
2023-06-16T00:38:48.154Z,97982.00
2023-06-16T00:38:58.303Z,97980.00
2023-06-16T00:39:08.542Z,97982.00
2023-06-16T00:39:18.664Z,97980.00
2023-06-16T00:39:28.663Z,97982.00
2023-06-16T00:39:38.925Z,97982.00
2023-06-16T00:39:48.926Z,97982.00
2023-06-16T00:39:59.042Z,97982.00
2023-06-16T00:40:09.311Z,97984.00
2023-06-16T00:40:19.731Z,97982.00
2023-06-16T00:40:29.349Z,97982.00
2023-06-16T00:40:39.720Z,97980.00
2023-06-16T00:40:49.715Z,97984.00
2023-06-16T00:40:59.726Z,97982.00
2023-06-16T00:41:09.737Z,97984.00
2023-06-16T00:41:19.756Z,97980.00
2023-06-16T00:41:29.754Z,97982.00
2023-06-16T00:41:39.763Z,97982.00
2023-06-16T00:41:49.770Z,97982.00
2023-06-16T00:41:59.785Z,97980.00
2023-06-16T00:42:09.791Z,97980.00
2023-06-16T00:42:19.797Z,97982.00
2023-06-16T00:42:29.819Z,97980.00
2023-06-16T00:42:39.820Z,97984.00
2023-06-16T00:42:49.831Z,97980.00
2023-06-16T00:42:59.855Z,97982.00
2023-06-16T00:43:09.848Z,97982.00
2023-06-16T00:43:19.863Z,97980.00
2023-06-16T00:43:29.869Z,97980.00
2023-06-16T00:43:39.886Z,97982.00
2023-06-16T00:43:49.886Z,97982.00
2023-06-16T00:43:59.900Z,97980.00
2023-06-16T00:44:09.912Z,97982.00
2023-06-16T00:44:19.922Z,97980.00
2023-06-16T00:44:31.693Z,97980.00
2023-06-16T00:44:39.997Z,97980.00
2023-06-16T00:44:50.004Z,97980.00
2023-06-16T00:45:00.019Z,97980.00
2023-06-16T00:45:10.131Z,97980.00
2023-06-16T00:45:20.253Z,97980.00
2023-06-16T00:45:30.371Z,97972.00
2023-06-16T00:45:40.491Z,97982.00
2023-06-16T00:45:50.507Z,97972.00
2023-06-16T00:46:00.493Z,97980.00
2023-06-16T00:46:10.496Z,97972.00
2023-06-16T00:46:20.673Z,97972.00
2023-06-16T00:46:30.748Z,97972.00
2023-06-16T00:46:40.841Z,97980.00
2023-06-16T00:46:50.923Z,97972.00
2023-06-16T00:47:00.957Z,97972.00
2023-06-16T00:47:11.057Z,97982.00
2023-06-16T00:47:21.164Z,97972.00
2023-06-16T00:47:31.249Z,97982.00
2023-06-16T00:47:41.276Z,97972.00
2023-06-16T00:47:51.314Z,97972.00
2023-06-16T00:48:01.358Z,97972.00
2023-06-16T00:48:11.421Z,97980.00
2023-06-16T00:48:21.459Z,97980.00
2023-06-16T00:48:31.462Z,97972.00
2023-06-16T00:48:41.477Z,97980.00
2023-06-16T00:48:51.482Z,97980.00
2023-06-16T00:49:01.852Z,97980.00
2023-06-16T00:49:11.847Z,97980.00
2023-06-16T00:49:21.988Z,97982.00
2023-06-16T00:49:32.247Z,97980.00
2023-06-16T00:49:42.233Z,97980.00
2023-06-16T00:49:52.241Z,97982.00
2023-06-16T00:50:02.248Z,97980.00
2023-06-16T00:50:12.274Z,97980.00
2023-06-16T00:50:22.268Z,97980.00
2023-06-16T00:50:32.278Z,97980.00
2023-06-16T00:50:42.414Z,97980.00
2023-06-16T00:50:52.404Z,97980.00
2023-06-16T00:51:02.420Z,97980.00
2023-06-16T00:51:12.697Z,97982.00
2023-06-16T00:51:22.679Z,97980.00
2023-06-16T00:51:32.698Z,97982.00
2023-06-16T00:51:42.690Z,97980.00
2023-06-16T00:51:52.734Z,97982.00
2023-06-16T00:52:02.736Z,97982.00
2023-06-16T00:52:12.746Z,97982.00
2023-06-16T00:52:22.753Z,97980.00
2023-06-16T00:52:32.741Z,97982.00
2023-06-16T00:52:42.746Z,97984.00
2023-06-16T00:52:52.760Z,97982.00
2023-06-16T00:53:02.804Z,97984.00
2023-06-16T00:53:12.801Z,97984.00
2023-06-16T00:53:22.929Z,97984.00
2023-06-16T00:53:32.969Z,97984.00
2023-06-16T00:53:42.956Z,97984.00
2023-06-16T00:53:52.956Z,97984.00
2023-06-16T00:54:03.203Z,97986.00
2023-06-16T00:54:13.211Z,97984.00
2023-06-16T00:54:23.217Z,97986.00
2023-06-16T00:54:33.207Z,97986.00
2023-06-16T00:54:43.333Z,97986.00
2023-06-16T00:54:53.336Z,97986.00
2023-06-16T00:55:03.346Z,97986.00
2023-06-16T00:55:13.363Z,97986.00
2023-06-16T00:55:23.381Z,97986.00
2023-06-16T00:55:33.384Z,97986.00
2023-06-16T00:55:43.658Z,97988.00
2023-06-16T00:55:53.663Z,97986.00
2023-06-16T00:56:03.793Z,97984.00
2023-06-16T00:56:14.055Z,97988.00
2023-06-16T00:56:24.048Z,97986.00
2023-06-16T00:56:34.044Z,97986.00
2023-06-16T00:56:44.444Z,97988.00
2023-06-16T00:56:54.445Z,97984.00
2023-06-16T00:57:04.449Z,97988.00
2023-06-16T00:57:14.838Z,97986.00
2023-06-16T00:57:24.829Z,97984.00
2023-06-16T00:57:34.942Z,97984.00
2023-06-16T00:57:45.211Z,97990.00
2023-06-16T00:57:55.211Z,97984.00
2023-06-16T00:58:05.224Z,97986.00
2023-06-16T00:58:15.227Z,97986.00
2023-06-16T00:58:25.225Z,97984.00
2023-06-16T00:58:35.370Z,97986.00
2023-06-16T00:58:45.418Z,97986.00
2023-06-16T00:58:55.413Z,97986.00
2023-06-16T00:59:05.422Z,97988.00
2023-06-16T00:59:15.421Z,97986.00
2023-06-16T00:59:25.671Z,97986.00
2023-06-16T00:59:35.790Z,97984.00
2023-06-16T00:59:45.790Z,97984.00
2023-06-16T00:59:56.041Z,97984.00
2023-06-16T01:00:06.040Z,97986.00
2023-06-16T01:00:16.514Z,97984.00
2023-06-16T01:00:26.453Z,97986.00
2023-06-16T01:00:36.577Z,97984.00
2023-06-16T01:00:46.597Z,97984.00
2023-06-16T01:00:56.840Z,97982.00
2023-06-16T01:01:06.845Z,97984.00
2023-06-16T01:01:16.960Z,97986.00
2023-06-16T01:01:27.227Z,97984.00
2023-06-16T01:01:37.349Z,97984.00
2023-06-16T01:01:47.381Z,97982.00
2023-06-16T01:01:57.647Z,97984.00
2023-06-16T01:02:07.700Z,97984.00
2023-06-16T01:02:17.713Z,97982.00
2023-06-16T01:02:27.789Z,97984.00
2023-06-16T01:02:37.879Z,97984.00
2023-06-16T01:02:47.839Z,97982.00
2023-06-16T01:02:58.070Z,97984.00
2023-06-16T01:03:07.921Z,97984.00
2023-06-16T01:03:18.104Z,97986.00
2023-06-16T01:03:28.139Z,97984.00
2023-06-16T01:03:38.120Z,97982.00
2023-06-16T01:03:48.130Z,97984.00
2023-06-16T01:03:58.240Z,97984.00
2023-06-16T01:04:08.249Z,97982.00
2023-06-16T01:04:18.256Z,97984.00
2023-06-16T01:04:28.252Z,97986.00
2023-06-16T01:04:38.377Z,97980.00
2023-06-16T01:04:48.539Z,97986.00
2023-06-16T01:04:58.540Z,97984.00
2023-06-16T01:05:08.537Z,97984.00
2023-06-16T01:05:18.918Z,97986.00
2023-06-16T01:05:28.914Z,97982.00
2023-06-16T01:05:39.042Z,97986.00
2023-06-16T01:05:49.293Z,97984.00
2023-06-16T01:05:59.295Z,97982.00
2023-06-16T01:06:09.307Z,97986.00
2023-06-16T01:06:21.702Z,97982.00
2023-06-16T01:06:29.427Z,97986.00
2023-06-16T01:06:39.556Z,97984.00
2023-06-16T01:06:49.688Z,97986.00
2023-06-16T01:06:59.720Z,97986.00
2023-06-16T01:07:09.704Z,97986.00
2023-06-16T01:07:19.714Z,97986.00
2023-06-16T01:07:29.887Z,97984.00
2023-06-16T01:07:39.957Z,97984.00
2023-06-16T01:07:50.015Z,97986.00
2023-06-16T01:08:00.276Z,97984.00
2023-06-16T01:08:10.277Z,97986.00
2023-06-16T01:08:20.393Z,97984.00
2023-06-16T01:08:30.649Z,97984.00
2023-06-16T01:08:40.790Z,97984.00
2023-06-16T01:08:50.802Z,97982.00
2023-06-16T01:09:01.061Z,97984.00
2023-06-16T01:09:11.055Z,97988.00
2023-06-16T01:09:21.166Z,97986.00
2023-06-16T01:09:31.428Z,97988.00
2023-06-16T01:09:41.552Z,97986.00
2023-06-16T01:09:51.558Z,97984.00
2023-06-16T01:10:01.808Z,97988.00
2023-06-16T01:10:11.807Z,97986.00
2023-06-16T01:10:22.131Z,97986.00
2023-06-16T01:10:32.210Z,97986.00
2023-06-16T01:10:42.323Z,97986.00
2023-06-16T01:10:52.327Z,97988.00
2023-06-16T01:11:02.616Z,97986.00
2023-06-16T01:11:12.627Z,97988.00
2023-06-16T01:11:22.635Z,97986.00
2023-06-16T01:11:32.627Z,97986.00
2023-06-16T01:11:42.748Z,97988.00
2023-06-16T01:11:52.903Z,97986.00
2023-06-16T01:12:02.928Z,97988.00
2023-06-16T01:12:12.944Z,97988.00
2023-06-16T01:12:22.962Z,97988.00
2023-06-16T01:12:32.968Z,97988.00
2023-06-16T01:12:43.114Z,97986.00
2023-06-16T01:12:53.103Z,97986.00
2023-06-16T01:13:03.226Z,97988.00
2023-06-16T01:13:13.477Z,97988.00
2023-06-16T01:13:23.640Z,97992.00
2023-06-16T01:13:33.633Z,97988.00
2023-06-16T01:13:43.889Z,97988.00
2023-06-16T01:13:53.880Z,97988.00
2023-06-16T01:14:03.882Z,97988.00
2023-06-16T01:14:13.887Z,97990.00
2023-06-16T01:14:24.006Z,97988.00
2023-06-16T01:14:34.009Z,97986.00
2023-06-16T01:14:44.010Z,97988.00
2023-06-16T01:14:54.022Z,97990.00
2023-06-16T01:15:04.141Z,97990.00
2023-06-16T01:15:14.141Z,97990.00
2023-06-16T01:15:24.298Z,97988.00
2023-06-16T01:15:34.303Z,97990.00
2023-06-16T01:15:44.320Z,97988.00
2023-06-16T01:15:54.317Z,97988.00
2023-06-16T01:16:04.340Z,97986.00
2023-06-16T01:16:14.363Z,97990.00
2023-06-16T01:16:24.420Z,97988.00
2023-06-16T01:16:34.559Z,97990.00
2023-06-16T01:16:44.520Z,97990.00
2023-06-16T01:16:54.647Z,97990.00
2023-06-16T01:17:05.029Z,97988.00
2023-06-16T01:17:14.966Z,97990.00
2023-06-16T01:17:25.033Z,97986.00
2023-06-16T01:17:35.138Z,97988.00
2023-06-16T01:17:45.602Z,97990.00
2023-06-16T01:17:55.277Z,97988.00
2023-06-16T01:18:05.284Z,97988.00
2023-06-16T01:18:15.304Z,97988.00
2023-06-16T01:18:25.288Z,97992.00
2023-06-16T01:18:35.293Z,97990.00
2023-06-16T01:18:45.664Z,97990.00
2023-06-16T01:18:55.696Z,97988.00
2023-06-16T01:19:05.689Z,97988.00
2023-06-16T01:19:15.690Z,97988.00
2023-06-16T01:19:25.706Z,97986.00
2023-06-16T01:19:35.716Z,97988.00
2023-06-16T01:19:45.737Z,97988.00
2023-06-16T01:19:55.727Z,97988.00
2023-06-16T01:20:05.766Z,97988.00
2023-06-16T01:20:15.934Z,97990.00
2023-06-16T01:20:25.843Z,97988.00
2023-06-16T01:20:35.843Z,97992.00
2023-06-16T01:20:45.965Z,97992.00
2023-06-16T01:20:55.979Z,97990.00
2023-06-16T01:21:05.993Z,97988.00
2023-06-16T01:21:15.975Z,97990.00
2023-06-16T01:21:26.097Z,97990.00
2023-06-16T01:21:36.235Z,97990.00
2023-06-16T01:21:46.239Z,97990.00
2023-06-16T01:21:56.260Z,97990.00
2023-06-16T01:22:06.658Z,97990.00
2023-06-16T01:22:16.627Z,97990.00
2023-06-16T01:22:26.744Z,97990.00
2023-06-16T01:22:37.016Z,97990.00
2023-06-16T01:22:47.026Z,97990.00
2023-06-16T01:22:57.035Z,97990.00
2023-06-16T01:23:07.066Z,97990.00
2023-06-16T01:23:17.157Z,97992.00
2023-06-16T01:23:27.165Z,97990.00
2023-06-16T01:23:37.195Z,97992.00
2023-06-16T01:23:47.343Z,97990.00
2023-06-16T01:23:57.364Z,97990.00
2023-06-16T01:24:07.440Z,97990.00
2023-06-16T01:24:17.753Z,97992.00
2023-06-16T01:24:27.860Z,97992.00
2023-06-16T01:24:37.949Z,97992.00
2023-06-16T01:24:48.244Z,97994.00
2023-06-16T01:24:58.255Z,97992.00
2023-06-16T01:25:08.247Z,97992.00
2023-06-16T01:25:18.246Z,97992.00
2023-06-16T01:25:28.257Z,97992.00
2023-06-16T01:25:38.260Z,97992.00
2023-06-16T01:25:48.303Z,97994.00
2023-06-16T01:25:58.312Z,97992.00
2023-06-16T01:26:08.445Z,97992.00
2023-06-16T01:26:18.447Z,97994.00
2023-06-16T01:26:28.700Z,97994.00
2023-06-16T01:26:38.714Z,97994.00
2023-06-16T01:26:48.710Z,97990.00
2023-06-16T01:26:58.708Z,97992.00
2023-06-16T01:27:08.713Z,97992.00
2023-06-16T01:27:18.713Z,97992.00
2023-06-16T01:27:28.836Z,97992.00
2023-06-16T01:27:38.838Z,97992.00
2023-06-16T01:27:49.086Z,97992.00
2023-06-16T01:27:58.992Z,97994.00
2023-06-16T01:28:09.132Z,97992.00
2023-06-16T01:28:19.127Z,97994.00
2023-06-16T01:28:29.270Z,97992.00
2023-06-16T01:28:39.482Z,97992.00
2023-06-16T01:28:49.602Z,97994.00
2023-06-16T01:28:59.604Z,97992.00
2023-06-16T01:29:09.888Z,97992.00
2023-06-16T01:29:19.870Z,97992.00
2023-06-16T01:29:29.992Z,97994.00
2023-06-16T01:29:40.250Z,97992.00
2023-06-16T01:29:50.374Z,97992.00
2023-06-16T01:30:00.379Z,97992.00
2023-06-16T01:30:11.478Z,97992.00
2023-06-16T01:30:20.890Z,97990.00
2023-06-16T01:30:30.809Z,97990.00
2023-06-16T01:30:41.090Z,97992.00
2023-06-16T01:30:51.102Z,97992.00
2023-06-16T01:31:01.123Z,97992.00
2023-06-16T01:31:21.136Z,97990.00
2023-06-16T01:31:31.254Z,97994.00
2023-06-16T01:31:41.285Z,97992.00
2023-06-16T01:31:51.301Z,97990.00
2023-06-16T01:32:01.297Z,97992.00
2023-06-16T01:32:11.486Z,97992.00
2023-06-16T01:32:21.619Z,97992.00
2023-06-16T01:32:31.641Z,97992.00
2023-06-16T01:32:41.669Z,97992.00
2023-06-16T01:32:52.053Z,97992.00
2023-06-16T01:33:02.073Z,97992.00
2023-06-16T01:33:12.122Z,97992.00
2023-06-16T01:33:22.454Z,97994.00
2023-06-16T01:33:32.449Z,97992.00
2023-06-16T01:33:42.444Z,97992.00
2023-06-16T01:33:52.443Z,97992.00
2023-06-16T01:34:02.471Z,97994.00
2023-06-16T01:34:12.465Z,97992.00
2023-06-16T01:34:22.466Z,97990.00
2023-06-16T01:34:32.591Z,97990.00
2023-06-16T01:34:42.586Z,97992.00
2023-06-16T01:34:52.711Z,97994.00
2023-06-16T01:35:02.859Z,97990.00
2023-06-16T01:35:12.879Z,97992.00
2023-06-16T01:35:22.903Z,97990.00
2023-06-16T01:35:32.899Z,97992.00
2023-06-16T01:35:42.923Z,97992.00
2023-06-16T01:35:53.042Z,97992.00
2023-06-16T01:36:03.049Z,97992.00
2023-06-16T01:36:13.055Z,97992.00
2023-06-16T01:36:23.055Z,97992.00
2023-06-16T01:36:33.239Z,97990.00
2023-06-16T01:36:43.297Z,97990.00
2023-06-16T01:36:53.282Z,97990.00
2023-06-16T01:37:03.304Z,97992.00
2023-06-16T01:37:13.313Z,97992.00
2023-06-16T01:37:23.318Z,97992.00
2023-06-16T01:37:33.324Z,97990.00
2023-06-16T01:37:43.314Z,97992.00
2023-06-16T01:37:53.465Z,97990.00
2023-06-16T01:38:03.449Z,97992.00
2023-06-16T01:38:13.447Z,97990.00
2023-06-16T01:38:23.719Z,97990.00
2023-06-16T01:38:33.714Z,97990.00
2023-06-16T01:38:43.711Z,97992.00
2023-06-16T01:38:54.084Z,97988.00
2023-06-16T01:39:04.085Z,97992.00
2023-06-16T01:39:14.208Z,97990.00
2023-06-16T01:39:24.467Z,97990.00
2023-06-16T01:39:34.606Z,97990.00
2023-06-16T01:39:44.595Z,97992.00
2023-06-16T01:39:54.852Z,97990.00
2023-06-16T01:40:04.971Z,97990.00
2023-06-16T01:40:15.062Z,97992.00
2023-06-16T01:40:25.245Z,97992.00
2023-06-16T01:40:35.246Z,97990.00
2023-06-16T01:40:45.242Z,97990.00
2023-06-16T01:40:55.240Z,97990.00
2023-06-16T01:41:05.381Z,97990.00
2023-06-16T01:41:15.374Z,97990.00
2023-06-16T01:41:25.499Z,97990.00
2023-06-16T01:41:35.510Z,97990.00
2023-06-16T01:41:45.510Z,97992.00
2023-06-16T01:41:55.518Z,97990.00
2023-06-16T01:42:05.675Z,97990.00
2023-06-16T01:42:15.683Z,97988.00
2023-06-16T01:42:25.669Z,97990.00
2023-06-16T01:42:35.672Z,97990.00
2023-06-16T01:42:45.678Z,97990.00
2023-06-16T01:42:55.679Z,97990.00
2023-06-16T01:43:05.697Z,97990.00
2023-06-16T01:43:15.699Z,97990.00
2023-06-16T01:43:25.712Z,97990.00
2023-06-16T01:43:35.711Z,97990.00
2023-06-16T01:43:46.103Z,97990.00
2023-06-16T01:43:56.095Z,97990.00
2023-06-16T01:44:06.216Z,97990.00
2023-06-16T01:44:16.474Z,97990.00
2023-06-16T01:44:26.615Z,97990.00
2023-06-16T01:44:36.616Z,97990.00
2023-06-16T01:44:46.874Z,97992.00
2023-06-16T01:44:56.867Z,97990.00
2023-06-16T01:45:06.868Z,97990.00
2023-06-16T01:45:16.875Z,97988.00
2023-06-16T01:45:26.898Z,97992.00
2023-06-16T01:45:36.898Z,97990.00
2023-06-16T01:45:47.041Z,97990.00
2023-06-16T01:45:57.062Z,97990.00
2023-06-16T01:46:07.095Z,97990.00
2023-06-16T01:46:17.269Z,97992.00
2023-06-16T01:46:27.544Z,97992.00
2023-06-16T01:46:37.509Z,97990.00
2023-06-16T01:46:47.740Z,97988.00
2023-06-16T01:46:57.923Z,97992.00
2023-06-16T01:47:08.044Z,97990.00
2023-06-16T01:47:18.143Z,97992.00
2023-06-16T01:47:28.507Z,97988.00
2023-06-16T01:47:38.522Z,97990.00
2023-06-16T01:47:48.595Z,97988.00
2023-06-16T01:47:58.620Z,97990.00
2023-06-16T01:48:08.726Z,97988.00
2023-06-16T01:48:18.864Z,97988.00
2023-06-16T01:48:28.767Z,97988.00
2023-06-16T01:48:38.772Z,97986.00
2023-06-16T01:48:48.948Z,97988.00
2023-06-16T01:48:58.934Z,97992.00
2023-06-16T01:49:09.185Z,97988.00
2023-06-16T01:49:19.193Z,97988.00
2023-06-16T01:49:29.211Z,97990.00
2023-06-16T01:49:39.216Z,97986.00
2023-06-16T01:49:49.227Z,97988.00
2023-06-16T01:49:59.240Z,97990.00
2023-06-16T01:50:09.385Z,97990.00
2023-06-16T01:50:19.621Z,97992.00
2023-06-16T01:50:29.440Z,97990.00
2023-06-16T01:50:39.438Z,97990.00
2023-06-16T01:50:49.755Z,97986.00
2023-06-16T01:50:59.793Z,97986.00
2023-06-16T01:51:09.786Z,97990.00
2023-06-16T01:51:20.045Z,97986.00
2023-06-16T01:51:30.062Z,97990.00
2023-06-16T01:51:40.062Z,97986.00
2023-06-16T01:51:50.454Z,97988.00
2023-06-16T01:52:00.454Z,97986.00
2023-06-16T01:52:10.575Z,97990.00
2023-06-16T01:52:20.858Z,97986.00
2023-06-16T01:52:30.843Z,97990.00
2023-06-16T01:52:40.852Z,97988.00
2023-06-16T01:52:51.221Z,97986.00
2023-06-16T01:53:01.221Z,97992.00
2023-06-16T01:53:11.360Z,97988.00
2023-06-16T01:53:21.620Z,97988.00
2023-06-16T01:53:31.625Z,97988.00
2023-06-16T01:53:41.631Z,97990.00
2023-06-16T01:53:51.645Z,97990.00
2023-06-16T01:54:01.650Z,97988.00
2023-06-16T01:54:11.657Z,97988.00
2023-06-16T01:54:21.651Z,97986.00
2023-06-16T01:54:31.776Z,97988.00
2023-06-16T01:54:41.777Z,97988.00
2023-06-16T01:54:51.896Z,97988.00
2023-06-16T01:55:02.060Z,97986.00
2023-06-16T01:55:12.177Z,97990.00
2023-06-16T01:55:22.175Z,97988.00
2023-06-16T01:55:32.431Z,97988.00
2023-06-16T01:55:42.441Z,97988.00
2023-06-16T01:55:52.498Z,97988.00
2023-06-16T01:56:02.490Z,97988.00
2023-06-16T01:56:12.503Z,97990.00
2023-06-16T01:56:22.514Z,97988.00
2023-06-16T01:56:32.528Z,97988.00
2023-06-16T01:56:42.534Z,97988.00
2023-06-16T01:56:52.650Z,97988.00
2023-06-16T01:57:02.662Z,97990.00
2023-06-16T01:57:12.917Z,97992.00
2023-06-16T01:57:22.910Z,97990.00
2023-06-16T01:57:33.063Z,97992.00
2023-06-16T01:57:43.303Z,97990.00
2023-06-16T01:57:53.304Z,97990.00
2023-06-16T01:58:03.314Z,97990.00
2023-06-16T01:58:13.308Z,97992.00
2023-06-16T01:58:23.320Z,97994.00